createdAt,value
2018-09-22T00:02:29.566Z,80.90
2018-09-22T00:05:34.925Z,80.90
2018-09-22T00:08:40.327Z,80.90
2018-09-22T00:11:45.690Z,81.20
2018-09-22T00:14:51.030Z,81.50
2018-09-22T00:17:56.465Z,81.70
2018-09-22T00:21:02.071Z,81.80
2018-09-22T00:24:07.472Z,81.70
2018-09-22T00:27:12.939Z,81.90
2018-09-22T00:30:18.516Z,82.20
2018-09-22T00:33:23.885Z,82.30
2018-09-22T00:36:29.244Z,82.30
2018-09-22T00:39:34.694Z,82.40
2018-09-22T00:42:40.054Z,82.50
2018-09-22T00:45:45.446Z,82.40
2018-09-22T00:48:50.930Z,82.30
2018-09-22T00:51:56.286Z,82.30
2018-09-22T00:55:03.758Z,82.20
2018-09-22T00:58:09.210Z,82.20
2018-09-22T01:01:14.677Z,82.00
2018-09-22T01:04:20.046Z,82.10
2018-09-22T01:07:25.838Z,82.00
2018-09-22T01:10:31.237Z,82.20
2018-09-22T01:13:36.585Z,82.10
2018-09-22T01:16:41.999Z,82.20
2018-09-22T01:19:47.427Z,82.40
2018-09-22T01:22:53.382Z,82.40
2018-09-22T01:25:58.721Z,82.20
2018-09-22T01:29:04.138Z,82.00
2018-09-22T01:32:09.474Z,82.20
2018-09-22T01:35:14.929Z,82.10
2018-09-22T01:38:20.370Z,82.20
2018-09-22T01:41:25.713Z,82.30
2018-09-22T01:44:31.050Z,82.30
2018-09-22T01:47:36.546Z,82.30
2018-09-22T01:50:41.945Z,82.50
2018-09-22T01:53:47.282Z,82.40
2018-09-22T01:56:52.626Z,82.40
2018-09-22T01:59:58.405Z,82.00
2018-09-22T02:03:03.721Z,81.90
2018-09-22T02:06:09.310Z,82.40
2018-09-22T02:09:14.786Z,82.20
2018-09-22T02:12:20.115Z,82.40
2018-09-22T02:15:25.465Z,82.50
2018-09-22T02:18:30.889Z,82.30
2018-09-22T02:21:36.274Z,82.50
2018-09-22T02:24:41.634Z,82.60
2018-09-22T02:27:47.014Z,82.60
2018-09-22T02:30:52.362Z,83.20
2018-09-22T02:33:57.711Z,83.30
2018-09-22T02:37:03.098Z,83.50
2018-09-22T02:40:08.470Z,83.90
2018-09-22T02:43:14.097Z,84.20
2018-09-22T02:46:19.699Z,84.10
2018-09-22T02:49:25.450Z,84.20
2018-09-22T02:52:30.827Z,84.10
2018-09-22T02:55:36.564Z,84.30
2018-09-22T02:58:41.957Z,84.10
2018-09-22T03:01:47.314Z,84.80
2018-09-22T03:04:52.646Z,84.80
2018-09-22T03:07:58.163Z,84.70
2018-09-22T03:11:03.594Z,84.60
2018-09-22T03:14:09.409Z,84.60
2018-09-22T03:17:14.854Z,84.90
2018-09-22T03:20:20.214Z,85.00
2018-09-22T03:23:25.574Z,85.20
2018-09-22T03:26:30.918Z,85.30
2018-09-22T03:29:36.278Z,85.30
2018-09-22T03:32:41.664Z,85.60
2018-09-22T03:35:46.985Z,85.90
2018-09-22T03:38:52.442Z,86.60
2018-09-22T03:41:57.753Z,86.30
2018-09-22T03:45:03.098Z,86.10
2018-09-22T03:48:08.494Z,86.70
2018-09-22T03:51:13.818Z,86.00
2018-09-22T03:54:19.159Z,86.10
2018-09-22T03:57:24.601Z,86.30
2018-09-22T04:00:30.083Z,86.00
2018-09-22T04:03:35.422Z,86.00
2018-09-22T04:06:40.918Z,86.10
2018-09-22T04:09:46.313Z,87.20
2018-09-22T04:12:51.625Z,87.50
2018-09-22T04:15:57.006Z,88.20
2018-09-22T04:19:02.565Z,87.40
2018-09-22T04:22:07.910Z,87.20
2018-09-22T04:25:13.285Z,87.50
2018-09-22T04:28:18.722Z,87.40
2018-09-22T04:31:24.089Z,87.60
2018-09-22T04:34:29.453Z,87.20
2018-09-22T04:37:34.921Z,87.40
2018-09-22T04:40:40.294Z,86.90
2018-09-22T04:43:47.726Z,87.00
2018-09-22T04:46:53.149Z,87.10
2018-09-22T04:49:58.513Z,87.10
2018-09-22T04:53:03.861Z,87.60
2018-09-22T04:56:09.214Z,87.20
2018-09-22T04:59:14.638Z,86.90
2018-09-22T05:02:19.969Z,87.00
2018-09-22T05:05:25.306Z,86.70
2018-09-22T05:08:30.645Z,86.80
2018-09-22T05:11:36.602Z,87.00
2018-09-22T05:14:42.421Z,87.10
2018-09-22T05:17:47.815Z,87.10
2018-09-22T05:20:53.145Z,87.00
2018-09-22T05:23:58.449Z,87.10
2018-09-22T05:27:03.965Z,87.30
2018-09-22T05:30:09.426Z,87.10
2018-09-22T05:33:14.789Z,86.90
2018-09-22T05:36:20.189Z,86.60
2018-09-22T05:39:25.566Z,86.30
2018-09-22T05:42:30.925Z,85.90
2018-09-22T05:45:36.282Z,86.00
2018-09-22T05:48:41.750Z,85.80
2018-09-22T05:51:47.130Z,86.20
2018-09-22T05:54:52.491Z,85.90
2018-09-22T05:57:57.964Z,85.50
2018-09-22T06:01:03.598Z,85.60
2018-09-22T06:04:08.934Z,85.60
2018-09-22T06:07:14.589Z,85.30
2018-09-22T06:10:20.041Z,85.50
2018-09-22T06:13:25.383Z,85.30
2018-09-22T06:16:30.754Z,85.50
2018-09-22T06:19:36.202Z,85.80
2018-09-22T06:22:41.574Z,85.10
2018-09-22T06:25:46.938Z,85.00
2018-09-22T06:28:52.368Z,84.90
2018-09-22T06:31:57.910Z,85.00
2018-09-22T06:35:03.270Z,84.90
2018-09-22T06:38:08.665Z,84.60
2018-09-22T06:41:14.017Z,84.20
2018-09-22T06:44:19.342Z,84.20
2018-09-22T06:47:24.943Z,84.00
2018-09-22T06:50:30.381Z,84.10
2018-09-22T06:53:35.933Z,84.10
2018-09-22T06:56:41.273Z,83.80
2018-09-22T06:59:46.633Z,84.00
2018-09-22T07:02:52.049Z,84.10
2018-09-22T07:05:57.601Z,83.80
2018-09-22T07:09:03.074Z,83.40
2018-09-22T07:12:08.787Z,83.90
2018-09-22T07:15:14.477Z,83.90
2018-09-22T07:18:20.018Z,83.30
2018-09-22T07:21:30.618Z,83.00
2018-09-22T07:24:35.942Z,83.40
2018-09-22T07:27:41.483Z,83.60
2018-09-22T07:30:46.991Z,83.00
2018-09-22T07:33:52.485Z,82.90
2018-09-22T07:36:57.985Z,82.80
2018-09-22T07:40:03.831Z,82.40
2018-09-22T07:43:09.264Z,81.90
2018-09-22T07:46:14.690Z,81.70
2018-09-22T07:49:20.116Z,80.30
2018-09-22T07:52:25.465Z,80.80
2018-09-22T07:55:30.800Z,79.60
2018-09-22T07:58:36.394Z,79.60
2018-09-22T08:01:41.993Z,79.00
2018-09-22T08:04:47.330Z,78.50
2018-09-22T08:07:52.789Z,78.50
2018-09-22T08:10:58.126Z,77.60
2018-09-22T08:14:04.802Z,77.30
2018-09-22T08:17:12.461Z,76.80
2018-09-22T08:20:17.794Z,75.90
2018-09-22T08:23:23.437Z,76.20
2018-09-22T08:26:29.102Z,75.70
2018-09-22T08:29:34.564Z,76.10
2018-09-22T08:32:39.917Z,75.40
2018-09-22T08:35:45.426Z,74.60
2018-09-22T08:38:50.873Z,73.10
2018-09-22T08:41:56.219Z,71.30
2018-09-22T08:45:01.663Z,70.20
2018-09-22T08:48:07.382Z,69.40
2018-09-22T08:51:12.795Z,69.50
2018-09-22T08:54:18.339Z,69.60
2018-09-22T08:57:23.817Z,69.90
2018-09-22T09:00:29.161Z,69.60
2018-09-22T09:03:34.734Z,70.10
2018-09-22T09:06:40.117Z,70.00
2018-09-22T09:09:45.482Z,69.90
2018-09-22T09:12:50.842Z,69.80
2018-09-22T09:15:56.169Z,70.10
2018-09-22T09:19:01.659Z,69.70
2018-09-22T09:22:07.009Z,69.80
2018-09-22T09:25:12.321Z,68.00
2018-09-22T09:28:17.776Z,68.20
2018-09-22T09:31:23.154Z,67.70
2018-09-22T09:34:28.514Z,67.10
2018-09-22T09:37:33.930Z,65.80
2018-09-22T09:40:39.269Z,64.20
2018-09-22T09:43:44.676Z,64.20
2018-09-22T09:46:50.261Z,63.50
2018-09-22T09:49:55.631Z,62.90
2018-09-22T09:53:00.989Z,62.10
2018-09-22T09:56:06.381Z,61.50
2018-09-22T09:59:12.005Z,61.50
2018-09-22T10:02:17.407Z,61.60
2018-09-22T10:05:22.868Z,62.00
2018-09-22T10:08:28.361Z,61.50
2018-09-22T10:11:33.684Z,62.60
2018-09-22T10:14:39.044Z,62.50
2018-09-22T10:17:44.771Z,62.90
2018-09-22T10:20:50.106Z,61.90
2018-09-22T10:23:55.478Z,61.10
2018-09-22T10:27:00.893Z,61.10
2018-09-22T10:30:07.209Z,60.70
2018-09-22T10:33:14.001Z,65.30
2018-09-22T10:36:20.074Z,66.90
2018-09-22T10:39:29.885Z,65.10
2018-09-22T10:42:37.453Z,64.30
2018-09-22T10:45:42.873Z,62.70
2018-09-22T10:48:48.305Z,61.60
2018-09-22T10:51:53.668Z,59.80
2018-09-22T10:54:59.256Z,58.90
2018-09-22T10:58:04.652Z,59.50
2018-09-22T11:01:10.202Z,58.80
2018-09-22T11:04:15.578Z,59.10
2018-09-22T11:07:20.936Z,59.00
2018-09-22T11:10:26.319Z,59.30
2018-09-22T11:13:31.689Z,58.60
2018-09-22T11:16:37.047Z,56.60
2018-09-22T11:19:42.428Z,57.10
2018-09-22T11:22:47.778Z,56.40
2018-09-22T11:25:53.218Z,55.90
2018-09-22T11:28:58.594Z,56.50
2018-09-22T11:32:03.961Z,55.30
2018-09-22T11:35:09.414Z,55.00
2018-09-22T11:38:14.989Z,52.90
2018-09-22T11:41:20.539Z,52.80
2018-09-22T11:44:25.883Z,51.60
2018-09-22T11:47:31.218Z,53.20
2018-09-22T11:50:36.585Z,52.40
2018-09-22T11:53:41.945Z,53.50
2018-09-22T11:56:47.286Z,53.70
2018-09-22T11:59:52.633Z,54.10
2018-09-22T12:02:58.003Z,54.70
2018-09-22T12:06:03.433Z,54.80
2018-09-22T12:09:11.885Z,55.50
2018-09-22T12:12:17.238Z,55.80
2018-09-22T12:15:22.597Z,56.70
2018-09-22T12:18:27.943Z,56.20
2018-09-22T12:21:33.375Z,56.50
2018-09-22T12:24:38.785Z,56.90
2018-09-22T12:27:44.338Z,60.10
2018-09-22T12:30:49.724Z,64.30
2018-09-22T12:33:55.101Z,68.30
2018-09-22T12:37:00.451Z,70.00
2018-09-22T12:40:06.473Z,70.00
2018-09-22T12:43:11.811Z,70.70
2018-09-22T12:46:17.196Z,77.70
2018-09-22T12:49:22.594Z,83.10
2018-09-22T12:52:38.106Z,80.30
2018-09-22T12:55:43.949Z,80.80
2018-09-22T12:58:49.416Z,81.00
2018-09-22T13:01:54.802Z,81.30
2018-09-22T13:05:00.189Z,80.10
2018-09-22T13:08:05.834Z,80.00
2018-09-22T13:11:11.369Z,82.20
2018-09-22T13:14:16.728Z,80.40
2018-09-22T13:17:22.238Z,77.60
2018-09-22T13:20:27.715Z,78.00
2018-09-22T13:23:33.115Z,79.40
2018-09-22T13:26:38.600Z,80.50
2018-09-22T13:29:44.220Z,78.40
2018-09-22T13:32:49.602Z,80.40
2018-09-22T13:35:55.023Z,79.10
2018-09-22T13:39:00.641Z,79.40
2018-09-22T13:42:06.553Z,79.90
2018-09-22T13:45:11.971Z,79.40
2018-09-22T13:48:17.507Z,79.50
2018-09-22T13:51:23.089Z,79.30
2018-09-22T13:54:28.474Z,78.70
2018-09-22T13:57:33.870Z,78.00
2018-09-22T14:00:39.263Z,77.50
2018-09-22T14:03:44.725Z,78.00
2018-09-22T14:06:50.278Z,76.90
2018-09-22T14:09:55.696Z,77.00
2018-09-22T14:13:03.001Z,76.40
2018-09-22T14:16:21.971Z,76.00
2018-09-22T14:19:27.727Z,75.90
2018-09-22T14:26:37.033Z,74.90
2018-09-22T14:29:42.442Z,76.00
2018-09-22T14:32:48.065Z,75.30
2018-09-22T14:35:53.594Z,74.40
2018-09-22T14:38:58.942Z,74.30
2018-09-22T14:42:04.308Z,74.50
2018-09-22T14:45:10.601Z,74.50
2018-09-22T14:48:16.885Z,73.00
2018-09-22T14:51:23.109Z,72.60
2018-09-22T14:54:30.608Z,73.20
2018-09-22T14:57:36.113Z,73.20
2018-09-22T15:00:41.478Z,73.50
2018-09-22T15:03:48.253Z,73.10
2018-09-22T15:06:53.711Z,73.10
2018-09-22T15:09:59.068Z,72.10
2018-09-22T15:13:04.435Z,71.50
2018-09-22T15:16:09.860Z,72.30
2018-09-22T15:19:15.275Z,71.70
2018-09-22T15:22:20.645Z,71.00
2018-09-22T15:25:26.012Z,71.70
2018-09-22T15:28:31.645Z,71.90
2018-09-22T15:31:37.401Z,72.20
2018-09-22T15:34:43.777Z,74.50
2018-09-22T15:37:49.166Z,76.20
2018-09-22T15:40:54.497Z,75.80
2018-09-22T15:43:59.879Z,77.60
2018-09-22T15:47:05.295Z,77.00
2018-09-22T15:50:10.653Z,76.70
2018-09-22T15:53:16.010Z,77.70
2018-09-22T15:56:21.389Z,77.30
2018-09-22T15:59:26.864Z,76.80
2018-09-22T16:02:32.517Z,76.80
2018-09-22T16:05:37.865Z,76.80
2018-09-22T16:08:43.311Z,77.20
2018-09-22T16:11:49.632Z,76.00
2018-09-22T16:14:54.973Z,75.90
2018-09-22T16:18:00.989Z,75.70
2018-09-22T16:21:06.709Z,75.70
2018-09-22T16:24:12.069Z,74.80
2018-09-22T16:27:17.491Z,75.70
2018-09-22T16:30:23.042Z,74.50
2018-09-22T16:33:28.409Z,74.60
2018-09-22T16:36:33.773Z,74.30
2018-09-22T16:39:39.136Z,74.30
2018-09-22T16:42:44.525Z,75.30
2018-09-22T16:45:50.055Z,74.80
2018-09-22T16:48:55.430Z,74.70
2018-09-22T16:52:01.099Z,74.50
2018-09-22T16:55:06.801Z,74.80
2018-09-22T16:58:12.149Z,75.00
2018-09-22T17:01:17.634Z,75.10
2018-09-22T17:04:23.030Z,75.30
2018-09-22T17:07:28.438Z,75.40
2018-09-22T17:10:34.106Z,76.30
2018-09-22T17:13:39.449Z,75.70
2018-09-22T17:16:44.793Z,75.90
2018-09-22T17:19:50.142Z,76.40
2018-09-22T17:22:55.517Z,76.30
2018-09-22T17:26:01.297Z,76.00
2018-09-22T17:29:07.345Z,76.60
2018-09-22T17:32:12.761Z,76.80
2018-09-22T17:35:18.166Z,76.80
2018-09-22T17:38:23.589Z,77.00
2018-09-22T17:41:28.954Z,76.70
2018-09-22T17:44:34.481Z,76.80
2018-09-22T17:47:39.868Z,76.70
2018-09-22T17:50:45.225Z,76.50
2018-09-22T17:53:50.590Z,76.80
2018-09-22T17:56:55.952Z,76.90
2018-09-22T18:00:01.316Z,77.10
2018-09-22T18:03:07.278Z,77.50
2018-09-22T18:06:12.639Z,77.00
2018-09-22T18:09:18.036Z,76.60
2018-09-22T18:12:23.398Z,76.60
2018-09-22T18:15:28.778Z,75.80
2018-09-22T18:18:34.149Z,75.60
2018-09-22T18:21:39.658Z,74.50
2018-09-22T18:24:45.085Z,74.90
2018-09-22T18:27:50.502Z,74.70
2018-09-22T18:30:55.861Z,74.50
2018-09-22T18:34:01.378Z,74.80
2018-09-22T18:37:06.955Z,74.90
2018-09-22T18:40:12.529Z,75.40
2018-09-22T18:43:18.006Z,75.90
2018-09-22T18:46:23.367Z,76.60
2018-09-22T18:49:28.734Z,77.40
2018-09-22T18:52:34.171Z,78.00
2018-09-22T18:55:40.544Z,78.50
2018-09-22T18:58:45.957Z,78.80
2018-09-22T19:01:51.465Z,79.10
2018-09-22T19:04:56.856Z,79.40
2018-09-22T19:08:02.334Z,79.30
2018-09-22T19:11:07.709Z,79.70
2018-09-22T19:14:26.614Z,79.90
2018-09-22T19:17:36.353Z,79.90
2018-09-22T19:20:47.759Z,79.80
2018-09-22T19:23:57.649Z,80.00
2018-09-22T19:27:06.621Z,80.50
2018-09-22T19:30:18.751Z,80.90
2018-09-22T19:33:33.489Z,81.30
2018-09-22T19:36:47.085Z,81.70
2018-09-22T19:39:56.633Z,82.10
2018-09-22T19:43:05.969Z,82.50
2018-09-22T19:46:16.135Z,82.30
2018-09-22T19:49:25.270Z,82.30
2018-09-22T19:52:35.198Z,82.30
2018-09-22T19:55:40.693Z,81.80
2018-09-22T19:58:46.121Z,81.90
2018-09-22T20:01:51.478Z,82.40
2018-09-22T20:04:56.870Z,82.20
2018-09-22T20:08:02.303Z,82.30
2018-09-22T20:11:08.121Z,82.80
2018-09-22T20:14:13.441Z,83.00
2018-09-22T20:17:18.913Z,83.60
2018-09-22T20:20:24.514Z,83.00
2018-09-22T20:23:29.851Z,83.80
2018-09-22T20:26:35.393Z,84.30
2018-09-22T20:29:41.117Z,84.70
2018-09-22T20:32:46.510Z,85.20
2018-09-22T20:35:52.002Z,85.40
2018-09-22T20:38:57.567Z,85.90
2018-09-22T20:42:02.925Z,86.10
2018-09-22T20:45:08.499Z,86.50
2018-09-22T20:48:13.922Z,86.90
2018-09-22T20:51:19.385Z,87.10
2018-09-22T20:54:24.741Z,87.40
2018-09-22T20:57:30.282Z,87.60
2018-09-22T21:00:36.344Z,87.70
2018-09-22T21:03:41.698Z,88.00
2018-09-22T21:06:47.250Z,88.10
2018-09-22T21:09:52.706Z,88.10
2018-09-22T21:12:58.092Z,88.40
2018-09-22T21:16:03.593Z,88.30
2018-09-22T21:19:09.018Z,88.40
2018-09-22T21:22:14.706Z,88.50
2018-09-22T21:25:20.171Z,88.50
2018-09-22T21:28:25.546Z,88.40
2018-09-22T21:31:30.939Z,88.40
2018-09-22T21:34:36.297Z,89.10
2018-09-22T21:37:41.719Z,89.20
2018-09-22T21:40:47.110Z,89.30
2018-09-22T21:43:52.467Z,89.50
2018-09-22T21:46:57.906Z,89.50
2018-09-22T21:50:03.245Z,89.40
2018-09-22T21:53:08.773Z,89.40
2018-09-22T21:56:14.261Z,89.40
2018-09-22T21:59:19.994Z,89.60
2018-09-22T22:02:25.365Z,89.70
2018-09-22T22:05:30.799Z,89.70
2018-09-22T22:08:36.274Z,89.80
2018-09-22T22:11:41.935Z,90.00
2018-09-22T22:14:47.352Z,89.70
2018-09-22T22:17:52.749Z,89.60
2018-09-22T22:20:58.096Z,90.00
2018-09-22T22:24:03.474Z,89.30
2018-09-22T22:27:08.977Z,89.40
2018-09-22T22:30:14.395Z,89.40
2018-09-22T22:33:19.791Z,89.60
2018-09-22T22:36:25.206Z,89.50
2018-09-22T22:39:30.570Z,89.40
2018-09-22T22:42:35.949Z,89.30
2018-09-22T22:45:41.594Z,89.40
2018-09-22T22:48:47.417Z,89.60
2018-09-22T22:51:52.809Z,89.70
2018-09-22T22:54:58.277Z,90.00
2018-09-22T22:58:03.647Z,89.80
2018-09-22T23:01:09.696Z,89.80
2018-09-22T23:04:15.057Z,89.80
2018-09-22T23:07:20.541Z,89.80
2018-09-22T23:10:25.901Z,89.70
2018-09-22T23:13:31.273Z,90.00
2018-09-22T23:16:36.718Z,90.00
2018-09-22T23:19:42.110Z,89.90
2018-09-22T23:22:47.497Z,90.00
2018-09-22T23:25:52.961Z,90.10
2018-09-22T23:28:58.416Z,90.10
2018-09-22T23:32:03.782Z,90.20
2018-09-22T23:35:09.189Z,90.00
2018-09-22T23:38:14.547Z,90.00
2018-09-22T23:41:20.094Z,89.90
2018-09-22T23:44:25.978Z,90.00
2018-09-22T23:47:31.430Z,90.00
2018-09-22T23:50:36.813Z,90.20
2018-09-22T23:53:42.334Z,90.20
2018-09-22T23:56:47.757Z,90.40
2018-09-22T23:59:53.100Z,90.10
